createdAt,value
2022-10-30T00:00:45.402Z,99.99
2022-10-30T00:01:45.597Z,99.99
2022-10-30T00:02:45.464Z,99.99
2022-10-30T00:03:45.265Z,99.99
2022-10-30T00:04:45.394Z,99.99
2022-10-30T00:05:45.103Z,99.99
2022-10-30T00:06:45.124Z,99.99
2022-10-30T00:07:45.115Z,99.99
2022-10-30T00:08:45.402Z,99.99
2022-10-30T00:09:45.330Z,99.99
2022-10-30T00:10:45.341Z,99.99
2022-10-30T00:11:45.308Z,99.99
2022-10-30T00:12:45.076Z,99.99
2022-10-30T00:13:45.059Z,99.99
2022-10-30T00:14:45.277Z,99.99
2022-10-30T00:15:45.292Z,99.99
2022-10-30T00:16:45.253Z,99.99
2022-10-30T00:17:45.249Z,99.99
2022-10-30T00:18:45.238Z,99.99
2022-10-30T00:19:44.977Z,99.99
2022-10-30T00:20:45.248Z,99.99
2022-10-30T00:21:45.221Z,99.99
2022-10-30T00:22:44.950Z,99.99
2022-10-30T00:23:45.196Z,99.99
2022-10-30T00:24:45.216Z,99.99
2022-10-30T00:25:44.921Z,99.99
2022-10-30T00:26:44.915Z,99.99
2022-10-30T00:27:45.170Z,99.99
2022-10-30T00:28:45.287Z,99.99
2022-10-30T00:29:45.146Z,99.99
2022-10-30T00:30:45.150Z,99.99
2022-10-30T00:31:45.126Z,99.99
2022-10-30T00:32:44.874Z,99.99
2022-10-30T00:33:45.117Z,99.99
2022-10-30T00:34:45.104Z,99.99
2022-10-30T00:35:45.021Z,99.99
2022-10-30T00:36:44.868Z,99.99
2022-10-30T00:37:45.075Z,99.99
2022-10-30T00:38:45.078Z,99.99
2022-10-30T00:39:45.063Z,99.99
2022-10-30T00:40:45.085Z,99.99
2022-10-30T00:41:44.799Z,99.99
2022-10-30T00:42:44.789Z,99.99
2022-10-30T00:43:44.775Z,99.99
2022-10-30T00:44:44.769Z,99.99
2022-10-30T00:45:44.758Z,99.99
2022-10-30T00:46:44.750Z,99.99
2022-10-30T00:47:44.746Z,99.99
2022-10-30T00:48:44.860Z,99.99
2022-10-30T00:49:44.722Z,99.99
2022-10-30T00:50:44.715Z,99.99
2022-10-30T00:51:44.963Z,99.99
2022-10-30T00:52:44.725Z,99.99
2022-10-30T00:53:44.945Z,99.99
2022-10-30T00:54:45.787Z,99.99
2022-10-30T00:55:45.793Z,99.99
2022-10-30T00:56:45.791Z,99.99
2022-10-30T00:57:45.510Z,99.99
2022-10-30T00:58:45.499Z,99.99
2022-10-30T00:59:45.490Z,99.99
2022-10-30T01:00:45.479Z,99.99
2022-10-30T01:01:45.826Z,99.99
2022-10-30T01:02:45.720Z,99.99
2022-10-30T01:03:45.704Z,99.99
2022-10-30T01:04:45.696Z,99.99
2022-10-30T01:05:45.695Z,99.99
2022-10-30T01:06:45.678Z,99.99
2022-10-30T01:07:45.686Z,99.99
2022-10-30T01:08:45.892Z,99.99
2022-10-30T01:09:45.659Z,99.99
2022-10-30T01:10:45.395Z,99.99
2022-10-30T01:11:45.388Z,99.99
2022-10-30T01:12:45.660Z,99.99
2022-10-30T01:13:45.621Z,99.99
2022-10-30T01:14:45.608Z,99.99
2022-10-30T01:15:45.348Z,99.99
2022-10-30T01:16:45.596Z,99.99
2022-10-30T01:17:45.590Z,99.99
2022-10-30T01:18:45.325Z,99.99
2022-10-30T01:19:45.574Z,99.99
2022-10-30T01:20:45.318Z,99.99
2022-10-30T01:21:45.554Z,99.99
2022-10-30T01:22:45.551Z,99.99
2022-10-30T01:23:45.539Z,99.99
2022-10-30T01:24:45.300Z,99.99
2022-10-30T01:25:45.523Z,99.99
2022-10-30T01:26:45.517Z,99.99
2022-10-30T01:27:45.245Z,99.99
2022-10-30T01:28:45.522Z,99.99
2022-10-30T01:29:45.511Z,99.99
2022-10-30T01:30:45.526Z,99.99
2022-10-30T01:31:45.464Z,99.99
2022-10-30T01:32:45.480Z,99.99
2022-10-30T01:33:45.210Z,99.99
2022-10-30T01:34:45.464Z,99.99
2022-10-30T01:35:45.185Z,99.99
2022-10-30T01:36:45.435Z,99.99
2022-10-30T01:37:45.164Z,99.99
2022-10-30T01:38:45.156Z,99.99
2022-10-30T01:39:45.144Z,99.99
2022-10-30T01:40:45.159Z,99.99
2022-10-30T01:41:45.129Z,99.99
2022-10-30T01:42:45.131Z,99.99
2022-10-30T01:43:45.108Z,99.99
2022-10-30T01:44:45.387Z,99.99
2022-10-30T01:45:45.352Z,99.99
2022-10-30T01:46:45.086Z,99.99
2022-10-30T01:47:45.332Z,99.99
2022-10-30T01:48:45.067Z,99.99
2022-10-30T01:49:45.065Z,99.99
2022-10-30T01:50:45.310Z,99.99
2022-10-30T01:51:45.303Z,99.99
2022-10-30T01:52:45.046Z,99.99
2022-10-30T01:53:45.289Z,99.99
2022-10-30T01:54:45.275Z,99.99
2022-10-30T01:55:45.259Z,99.99
2022-10-30T01:56:45.026Z,99.99
2022-10-30T01:57:45.249Z,99.99
2022-10-30T01:58:45.238Z,99.99
2022-10-30T01:59:45.226Z,99.99
2022-10-30T02:00:45.247Z,99.99
2022-10-30T02:01:45.527Z,99.99
2022-10-30T02:02:45.433Z,99.99
2022-10-30T02:03:45.194Z,99.99
2022-10-30T02:04:45.188Z,99.99
2022-10-30T02:05:45.181Z,99.99
2022-10-30T02:06:45.167Z,99.99
2022-10-30T02:07:44.912Z,99.99
2022-10-30T02:08:44.904Z,99.99
2022-10-30T02:09:45.143Z,99.99
2022-10-30T02:10:45.134Z,99.99
2022-10-30T02:11:44.872Z,99.99
2022-10-30T02:12:45.138Z,99.99
2022-10-30T02:13:45.108Z,99.99
2022-10-30T02:14:44.850Z,99.99
2022-10-30T02:15:45.107Z,99.99
2022-10-30T02:16:45.104Z,99.99
2022-10-30T02:17:44.825Z,99.99
2022-10-30T02:19:45.061Z,99.99
2022-10-30T02:20:44.793Z,99.99
2022-10-30T02:21:44.792Z,99.99
2022-10-30T02:22:45.183Z,99.99
2022-10-30T02:23:45.025Z,99.99
2022-10-30T02:24:45.012Z,99.99
2022-10-30T02:25:45.162Z,99.99
2022-10-30T02:26:44.992Z,99.99
2022-10-30T02:27:44.998Z,99.99
2022-10-30T02:28:45.010Z,99.99
2022-10-30T02:29:44.971Z,99.99
2022-10-30T02:30:44.718Z,99.99
2022-10-30T02:31:44.972Z,99.99
2022-10-30T02:32:44.968Z,99.99
2022-10-30T02:33:44.683Z,99.99
2022-10-30T02:34:44.674Z,99.99
2022-10-30T02:35:44.665Z,99.99
2022-10-30T02:36:44.910Z,99.99
2022-10-30T02:37:44.910Z,99.99
2022-10-30T02:38:44.645Z,99.99
2022-10-30T02:39:44.632Z,99.99
2022-10-30T02:40:44.875Z,99.99
2022-10-30T02:41:44.883Z,99.99
2022-10-30T02:42:44.866Z,99.99
2022-10-30T02:43:44.685Z,99.99
2022-10-30T02:44:44.612Z,99.99
2022-10-30T02:45:44.582Z,99.99
2022-10-30T02:46:44.576Z,99.99
2022-10-30T02:47:44.861Z,99.99
2022-10-30T02:48:44.833Z,99.99
2022-10-30T02:49:44.547Z,99.52
2022-10-30T02:50:44.539Z,99.24
2022-10-30T02:51:44.534Z,98.75
2022-10-30T02:52:44.521Z,97.99
2022-10-30T02:53:44.779Z,97.52
2022-10-30T02:54:44.506Z,96.66
2022-10-30T02:55:44.760Z,95.98
2022-10-30T02:56:44.741Z,95.98
2022-10-30T02:57:44.733Z,95.79
2022-10-30T02:58:44.479Z,95.79
2022-10-30T02:59:44.468Z,95.61
2022-10-30T03:00:44.738Z,95.51
2022-10-30T03:01:44.810Z,95.51
2022-10-30T03:02:44.620Z,95.32
2022-10-30T03:03:44.700Z,94.46
2022-10-30T03:04:44.711Z,94.46
2022-10-30T03:05:44.668Z,94.46
2022-10-30T03:06:44.663Z,94.93
2022-10-30T03:07:44.399Z,94.26
2022-10-30T03:08:44.652Z,94.17
2022-10-30T03:09:44.631Z,95.12
2022-10-30T03:10:44.629Z,94.65
2022-10-30T03:11:44.612Z,94.55
2022-10-30T03:12:44.361Z,94.74
2022-10-30T03:13:44.602Z,95.12
2022-10-30T03:14:44.595Z,95.7
2022-10-30T03:15:44.331Z,95.12
2022-10-30T03:16:44.604Z,95.12
2022-10-30T03:17:44.310Z,94.65
2022-10-30T03:18:44.556Z,93.98
2022-10-30T03:19:44.302Z,93.79
2022-10-30T03:20:44.570Z,93.5
2022-10-30T03:21:44.282Z,93.6
2022-10-30T03:22:44.520Z,93.6
2022-10-30T03:23:44.519Z,93.98
2022-10-30T03:24:44.510Z,94.36
2022-10-30T03:25:44.246Z,95.03
2022-10-30T03:26:44.238Z,95.51
2022-10-30T03:27:44.485Z,95.51
2022-10-30T03:28:44.220Z,96.13
2022-10-30T03:29:44.464Z,96.32
2022-10-30T03:30:44.202Z,96.61
2022-10-30T03:31:44.449Z,96.8
2022-10-30T03:32:44.214Z,97.66
2022-10-30T03:49:38.640Z,99.99
2022-10-30T03:50:38.330Z,99.99
2022-10-30T03:51:38.564Z,99.99
2022-10-30T03:52:38.563Z,99.99
2022-10-30T03:53:38.553Z,99.99
2022-10-30T03:54:38.274Z,99.99
2022-10-30T03:55:38.515Z,99.99
2022-10-30T03:56:38.499Z,99.99
2022-10-30T03:57:38.493Z,99.99
2022-10-30T03:58:38.490Z,99.99
2022-10-30T03:59:38.218Z,99.99
2022-10-30T04:00:38.216Z,99.99
2022-10-30T04:01:38.657Z,99.99
2022-10-30T04:02:38.446Z,99.99
2022-10-30T04:03:38.434Z,99.57
2022-10-30T04:04:38.420Z,99.57
2022-10-30T04:05:38.460Z,99.09
2022-10-30T04:06:38.152Z,98.9
2022-10-30T04:07:38.398Z,99.19
2022-10-30T04:08:38.383Z,98.8
2022-10-30T04:09:38.373Z,98.99
2022-10-30T04:10:38.538Z,99.04
2022-10-30T04:11:38.363Z,99.09
2022-10-30T04:12:38.345Z,98.8
2022-10-30T04:13:38.086Z,99.38
2022-10-30T04:14:38.327Z,99.28
2022-10-30T04:15:38.316Z,99.19
2022-10-30T04:16:38.306Z,99.38
2022-10-30T04:17:38.306Z,99.48
2022-10-30T04:18:38.290Z,99.09
2022-10-30T04:19:38.281Z,99.19
2022-10-30T04:20:38.272Z,99.28
2022-10-30T04:21:38.315Z,99.19
2022-10-30T04:22:38.005Z,98.8
2022-10-30T04:23:38.250Z,98.8
2022-10-30T04:24:38.238Z,97.75
2022-10-30T04:25:38.234Z,97.61
2022-10-30T04:26:37.964Z,97.85
2022-10-30T04:27:38.214Z,97.61
2022-10-30T04:28:37.945Z,96.94
2022-10-30T04:29:38.192Z,96.27
2022-10-30T04:30:37.934Z,96.84
2022-10-30T04:31:37.918Z,96.13
2022-10-30T04:32:38.179Z,95.79
2022-10-30T04:33:38.160Z,95.12
2022-10-30T04:34:38.155Z,94.46
2022-10-30T04:35:38.146Z,93.88
2022-10-30T04:36:38.130Z,93.6
2022-10-30T04:37:38.175Z,93.4
2022-10-30T04:38:37.867Z,93.79
2022-10-30T04:39:40.932Z,93.69
2022-10-30T04:40:38.099Z,93.5
2022-10-30T04:41:38.089Z,93.88
2022-10-30T04:42:37.833Z,94.36
2022-10-30T04:43:37.823Z,94.17
2022-10-30T04:44:37.805Z,95.12
2022-10-30T04:45:37.801Z,94.65
2022-10-30T04:46:38.053Z,94.65
2022-10-30T04:47:38.045Z,94.07
2022-10-30T04:48:38.030Z,93.6
2022-10-30T04:49:38.036Z,93.12
2022-10-30T04:50:38.023Z,92.16
2022-10-30T04:51:37.747Z,91.88
2022-10-30T04:52:37.998Z,91.97
2022-10-30T04:53:38.033Z,91.44
2022-10-30T04:54:37.723Z,91.2
2022-10-30T04:55:37.719Z,91.06
2022-10-30T04:56:37.962Z,90.58
2022-10-30T04:57:37.954Z,90.48
2022-10-30T04:58:37.956Z,90.67
2022-10-30T04:59:37.933Z,89.91
2022-10-30T05:00:37.955Z,89.81
2022-10-30T05:01:38.191Z,90.1
2022-10-30T05:02:38.090Z,90.1
2022-10-30T05:03:37.653Z,89.34
2022-10-30T05:04:37.641Z,88.95
2022-10-30T05:05:37.627Z,88.57
2022-10-30T05:06:37.880Z,87.81
2022-10-30T05:07:37.870Z,87.52
2022-10-30T05:08:37.610Z,87.81
2022-10-30T05:09:37.903Z,86.94
2022-10-30T05:10:37.591Z,86.57
2022-10-30T05:11:37.853Z,86.08
2022-10-30T05:12:37.832Z,86.08
2022-10-30T05:13:37.820Z,85.8
2022-10-30T05:14:37.819Z,85.61
2022-10-30T05:15:37.800Z,85.41
2022-10-30T05:16:37.795Z,85.51
2022-10-30T05:17:37.795Z,86.18
2022-10-30T05:18:37.819Z,86.37
2022-10-30T05:19:37.519Z,86.28
2022-10-30T05:20:37.512Z,86.57
2022-10-30T05:21:37.501Z,87.04
2022-10-30T05:22:37.754Z,87.52
2022-10-30T05:23:37.492Z,87.81
2022-10-30T05:24:37.479Z,87.23
2022-10-30T05:25:37.838Z,87.14
2022-10-30T05:26:37.462Z,87.23
2022-10-30T05:27:37.710Z,86.76
2022-10-30T05:28:37.702Z,86.85
2022-10-30T05:29:37.687Z,86.94
2022-10-30T05:30:37.691Z,87.04
2022-10-30T05:31:37.421Z,87.04
2022-10-30T05:32:37.431Z,87.04
2022-10-30T05:33:37.662Z,87.04
2022-10-30T05:34:37.661Z,86.94
2022-10-30T05:35:37.825Z,87.43
2022-10-30T05:36:37.379Z,87.62
2022-10-30T05:37:37.628Z,87.43
2022-10-30T05:38:37.616Z,87.9
2022-10-30T05:39:37.358Z,88
2022-10-30T05:40:37.353Z,88.48
2022-10-30T05:41:37.647Z,88.62
2022-10-30T05:42:37.584Z,89.05
2022-10-30T05:43:37.584Z,88.57
2022-10-30T05:45:02.567Z,88.19
2022-10-30T05:45:37.568Z,88.19
2022-10-30T05:46:37.549Z,88.67
2022-10-30T05:47:37.305Z,88.76
2022-10-30T05:48:37.282Z,89.53
2022-10-30T05:49:37.528Z,89.96
2022-10-30T05:50:37.270Z,90.53
2022-10-30T05:51:41.792Z,90.73
2022-10-30T05:52:37.522Z,90.92
2022-10-30T05:53:37.502Z,90.92
2022-10-30T05:54:37.233Z,90.34
2022-10-30T05:55:37.487Z,90.44
2022-10-30T05:56:37.471Z,89.96
2022-10-30T05:57:37.519Z,89.58
2022-10-30T05:58:37.453Z,89.91
2022-10-30T05:59:37.449Z,89.67
2022-10-30T06:00:37.192Z,89.67
2022-10-30T06:01:37.408Z,89.87
2022-10-30T06:02:37.611Z,89.67
2022-10-30T06:03:37.417Z,89.39
2022-10-30T06:04:37.156Z,89.39
2022-10-30T06:05:37.399Z,89.67
2022-10-30T06:06:37.403Z,89.58
2022-10-30T06:07:37.392Z,89.72
2022-10-30T06:08:37.370Z,89.96
2022-10-30T06:09:37.369Z,89.96
2022-10-30T06:10:37.250Z,90.63
2022-10-30T06:11:37.348Z,90.34
2022-10-30T06:12:37.342Z,90.96
2022-10-30T06:13:37.379Z,91.63
2022-10-30T06:14:37.068Z,92.02
2022-10-30T06:15:37.323Z,92.25
2022-10-30T06:16:37.096Z,92.74
2022-10-30T06:17:37.047Z,92.83
2022-10-30T06:18:37.292Z,92.74
2022-10-30T06:19:37.037Z,93.5
2022-10-30T06:20:37.277Z,93.5
2022-10-30T06:21:37.014Z,93.5
2022-10-30T06:22:37.006Z,94.07
2022-10-30T06:23:36.996Z,93.88
2022-10-30T06:24:37.254Z,94.36
2022-10-30T06:25:43.115Z,93.93
2022-10-30T06:26:37.227Z,94.07
2022-10-30T06:27:37.220Z,94.74
2022-10-30T06:28:36.965Z,94.36
2022-10-30T06:29:37.259Z,93.64
2022-10-30T06:30:36.939Z,93.16
2022-10-30T06:31:37.183Z,92.3
2022-10-30T06:32:36.924Z,91.83
2022-10-30T06:33:37.187Z,92.21
2022-10-30T06:34:37.164Z,91.35
2022-10-30T06:35:37.156Z,91.16
2022-10-30T06:36:37.317Z,91.06
2022-10-30T06:37:37.139Z,90.67
2022-10-30T06:38:37.136Z,90.58
2022-10-30T06:39:36.865Z,90.2
2022-10-30T06:40:36.859Z,90.1
2022-10-30T06:41:37.113Z,89.91
2022-10-30T06:42:37.103Z,89.62
2022-10-30T06:43:37.092Z,89.34
2022-10-30T06:44:37.082Z,89.53
2022-10-30T06:45:37.123Z,89.24
2022-10-30T06:46:37.076Z,89.34
2022-10-30T06:47:37.058Z,89.34
2022-10-30T06:48:37.056Z,89.72
2022-10-30T06:49:37.045Z,89.43
2022-10-30T06:50:37.038Z,89.34
2022-10-30T06:51:37.023Z,89.91
2022-10-30T06:52:37.029Z,90.01
2022-10-30T06:53:36.758Z,90.01
2022-10-30T06:54:37.013Z,89.72
2022-10-30T06:55:36.737Z,89.19
2022-10-30T06:56:36.997Z,89.29
2022-10-30T06:57:36.989Z,89.38
2022-10-30T06:58:36.717Z,89.09
2022-10-30T06:59:36.960Z,89
2022-10-30T07:00:36.835Z,88.52
2022-10-30T07:01:37.197Z,87.95
2022-10-30T07:02:36.957Z,87.56
2022-10-30T07:03:36.937Z,87.66
2022-10-30T07:04:36.931Z,87.18
2022-10-30T07:05:36.924Z,87.08
2022-10-30T07:06:36.656Z,86.74
2022-10-30T07:07:36.646Z,86.27
2022-10-30T07:08:36.894Z,86.08
2022-10-30T07:09:36.885Z,85.79
2022-10-30T07:10:37.039Z,85.31
2022-10-30T07:11:36.872Z,85.02
2022-10-30T07:12:36.880Z,85.5
2022-10-30T07:13:36.859Z,84.92
2022-10-30T07:14:36.847Z,84.55
2022-10-30T07:15:36.715Z,84.45
2022-10-30T07:16:36.832Z,84.26
2022-10-30T07:17:36.873Z,83.78
2022-10-30T07:18:36.818Z,83.87
2022-10-30T07:19:36.816Z,84.35
2022-10-30T07:20:36.808Z,85.12
2022-10-30T07:21:36.798Z,85.5
2022-10-30T07:22:36.539Z,86.27
2022-10-30T07:23:36.534Z,86.27
2022-10-30T07:24:36.777Z,86.36
2022-10-30T07:25:36.513Z,87.32
2022-10-30T07:26:36.758Z,87.9
2022-10-30T07:27:36.756Z,87.8
2022-10-30T07:28:36.757Z,87.99
2022-10-30T07:29:36.489Z,88.66
2022-10-30T07:30:36.729Z,88.56
2022-10-30T07:32:02.079Z,89.14
2022-10-30T07:32:36.726Z,89.43
2022-10-30T07:33:36.764Z,89.23
2022-10-30T07:34:36.464Z,89.81
2022-10-30T07:35:36.697Z,90.09
2022-10-30T07:36:36.696Z,90.29
2022-10-30T07:37:36.694Z,90.29
2022-10-30T07:38:36.426Z,90.67
2022-10-30T07:39:36.420Z,90.19
2022-10-30T07:40:36.418Z,90
2022-10-30T07:41:36.655Z,90
2022-10-30T07:42:36.642Z,90.39
2022-10-30T07:43:36.390Z,89.72
2022-10-30T07:44:36.643Z,89.04
2022-10-30T07:45:36.645Z,88.85
2022-10-30T07:46:36.615Z,88.37
2022-10-30T07:47:36.362Z,88.28
2022-10-30T07:48:36.613Z,88.28
2022-10-30T07:49:36.649Z,88.28
2022-10-30T07:50:36.336Z,87.61
2022-10-30T07:51:36.587Z,87.61
2022-10-30T07:52:36.599Z,87.17
2022-10-30T07:53:36.576Z,86.98
2022-10-30T07:54:36.305Z,86.41
2022-10-30T07:55:36.560Z,85.83
2022-10-30T07:56:36.554Z,85.83
2022-10-30T07:57:36.539Z,85.35
2022-10-30T07:58:38.941Z,85.54
2022-10-30T07:59:36.291Z,85.45
2022-10-30T08:00:36.546Z,85.64
2022-10-30T08:01:36.578Z,85.54
2022-10-30T08:02:36.445Z,85.45
2022-10-30T08:03:36.501Z,85.25
2022-10-30T08:04:36.239Z,85.25
2022-10-30T08:05:36.538Z,85.25
2022-10-30T08:06:36.226Z,85.25
2022-10-30T08:07:36.473Z,85.16
2022-10-30T08:08:43.527Z,84.88
2022-10-30T08:09:36.477Z,84.58
2022-10-30T08:10:36.451Z,85.06
2022-10-30T08:11:36.202Z,85.74
2022-10-30T08:12:36.191Z,85.25
2022-10-30T08:13:36.179Z,85.54
2022-10-30T08:14:36.429Z,86.21
2022-10-30T08:15:36.172Z,86.5
2022-10-30T08:16:36.164Z,87.08
2022-10-30T08:17:36.404Z,87.94
2022-10-30T08:18:36.405Z,88.27
2022-10-30T08:19:36.136Z,88.84
2022-10-30T08:20:36.414Z,88.84
2022-10-30T08:21:36.426Z,88.94
2022-10-30T08:22:36.120Z,88.46
2022-10-30T08:23:36.364Z,88.7
2022-10-30T08:24:36.361Z,88.12
2022-10-30T08:25:36.349Z,87.93
2022-10-30T08:26:36.360Z,87.26
2022-10-30T08:27:36.340Z,87.4
2022-10-30T08:28:36.077Z,86.34
2022-10-30T08:29:36.334Z,85.38
2022-10-30T08:30:36.432Z,84.04
2022-10-30T08:31:36.316Z,84.08
2022-10-30T08:32:36.309Z,84.18
2022-10-30T08:33:36.316Z,83.98
2022-10-30T08:34:36.303Z,83.7
2022-10-30T08:36:36.295Z,84.22
2022-10-30T08:37:36.325Z,82.97
2022-10-30T08:38:36.282Z,83.26
2022-10-30T08:39:36.262Z,82.68
2022-10-30T08:40:36.268Z,82.78
2022-10-30T08:41:36.255Z,82.3
2022-10-30T08:42:36.248Z,81.24
2022-10-30T08:43:36.242Z,81.05
2022-10-30T08:44:36.241Z,80.19
2022-10-30T08:45:35.977Z,79.42
2022-10-30T08:46:35.980Z,78.94
2022-10-30T08:47:36.224Z,78.75
2022-10-30T08:48:36.219Z,78.17
2022-10-30T08:49:36.212Z,78.17
2022-10-30T08:50:36.211Z,78.17
2022-10-30T08:51:36.206Z,77.69
2022-10-30T08:52:36.200Z,77.69
2022-10-30T08:53:36.245Z,77.98
2022-10-30T08:54:35.931Z,77.11
2022-10-30T08:55:36.182Z,77.15
2022-10-30T08:56:36.171Z,76.86
2022-10-30T08:57:36.171Z,76.39
2022-10-30T08:58:35.913Z,76.57
2022-10-30T08:59:36.178Z,76.39
2022-10-30T09:00:36.153Z,76.39
2022-10-30T09:01:36.122Z,77.06
2022-10-30T09:02:36.365Z,77.25
2022-10-30T09:03:35.889Z,78.21
2022-10-30T09:04:36.132Z,78.88
2022-10-30T09:05:36.137Z,79.65
2022-10-30T09:06:36.125Z,79.55
2022-10-30T09:07:35.871Z,79.17
2022-10-30T09:08:36.110Z,79.27
2022-10-30T09:09:36.160Z,79.55
2022-10-30T09:10:36.100Z,79.55
2022-10-30T09:11:36.107Z,80.51
2022-10-30T09:12:35.840Z,80.22
2022-10-30T09:13:36.088Z,80.22
2022-10-30T09:14:36.084Z,80.42
2022-10-30T09:15:35.832Z,80.32
2022-10-30T09:16:35.823Z,80.8
2022-10-30T09:17:35.818Z,81.28
2022-10-30T09:18:35.807Z,81.57
2022-10-30T09:19:35.876Z,81.57
2022-10-30T09:20:36.065Z,82.05
2022-10-30T09:21:35.794Z,82.2
2022-10-30T09:22:35.795Z,82.68
2022-10-30T09:23:36.043Z,83.16
2022-10-30T09:24:36.032Z,83.16
2022-10-30T09:25:36.083Z,82.68
2022-10-30T09:26:36.029Z,81.92
2022-10-30T09:27:35.772Z,81.72
2022-10-30T09:28:36.011Z,81.15
2022-10-30T09:29:35.756Z,80.73
2022-10-30T09:30:35.761Z,80.66
2022-10-30T09:31:35.752Z,80.53
2022-10-30T09:32:35.740Z,80.73
2022-10-30T09:33:35.996Z,80.73
2022-10-30T09:34:35.990Z,80.82
2022-10-30T09:35:35.987Z,81.2
2022-10-30T09:36:35.982Z,81.2
2022-10-30T09:37:35.714Z,80.91
2022-10-30T09:38:35.963Z,80.91
2022-10-30T09:39:35.963Z,80.53
2022-10-30T09:40:35.951Z,80.63
2022-10-30T09:41:36.003Z,80.82
2022-10-30T09:42:35.941Z,80.86
2022-10-30T09:43:35.686Z,80.57
2022-10-30T09:44:35.931Z,80.38
2022-10-30T09:45:35.675Z,79.99
2022-10-30T09:46:35.927Z,79.99
2022-10-30T09:47:35.702Z,80.38
2022-10-30T09:48:35.914Z,80.28
2022-10-30T09:49:35.913Z,80.09
2022-10-30T09:50:40.996Z,80.19
2022-10-30T09:51:35.646Z,80.57
2022-10-30T09:52:35.635Z,81.05
2022-10-30T09:53:35.634Z,80.73
2022-10-30T09:54:35.628Z,81.01
2022-10-30T09:55:35.619Z,81.15
2022-10-30T09:56:35.619Z,81.1
2022-10-30T09:57:35.912Z,81.3
2022-10-30T09:58:35.864Z,81.59
2022-10-30T09:59:35.863Z,81.59
2022-10-30T10:00:35.599Z,81.4
2022-10-30T10:01:35.885Z,81.97
2022-10-30T10:02:35.988Z,81.78
2022-10-30T10:03:35.832Z,82.35
2022-10-30T10:04:35.840Z,81.97
2022-10-30T10:05:35.828Z,81.97
2022-10-30T10:06:35.575Z,81.49
2022-10-30T10:07:35.817Z,81.24
2022-10-30T10:08:35.567Z,80.66
2022-10-30T10:09:35.918Z,79.8
2022-10-30T10:10:35.802Z,79.13
2022-10-30T10:11:35.794Z,78.21
2022-10-30T10:12:35.536Z,77.34
2022-10-30T10:13:35.827Z,77.48
2022-10-30T10:14:35.526Z,77.38
2022-10-30T10:15:35.774Z,77.29
2022-10-30T10:16:35.782Z,77.29
2022-10-30T10:17:35.763Z,74.15
2022-10-30T10:18:35.503Z,73.09
2022-10-30T10:19:35.780Z,73.09
2022-10-30T10:20:35.751Z,72.9
2022-10-30T10:21:35.487Z,72.42
2022-10-30T10:22:35.486Z,71.3
2022-10-30T10:23:35.736Z,69.85
2022-10-30T10:24:35.733Z,68.9
2022-10-30T10:25:35.472Z,68.64
2022-10-30T10:26:35.731Z,67
2022-10-30T10:27:35.713Z,66.71
2022-10-30T10:28:39.113Z,65.66
2022-10-30T10:29:35.739Z,65.11
2022-10-30T10:30:35.703Z,64.92
2022-10-30T10:31:35.704Z,64.43
2022-10-30T10:32:35.701Z,63.85
2022-10-30T10:33:35.692Z,62.51
2022-10-30T10:34:35.695Z,62.22
2022-10-30T10:35:35.430Z,62.32
2022-10-30T10:36:35.691Z,62.73
2022-10-30T10:37:35.673Z,62.45
2022-10-30T10:38:35.420Z,61.29
2022-10-30T10:39:35.673Z,60.9
2022-10-30T10:40:35.665Z,61.1
2022-10-30T10:41:35.663Z,61.03
2022-10-30T10:42:35.656Z,60.16
2022-10-30T10:43:35.661Z,60.35
2022-10-30T10:44:35.443Z,59.94
2022-10-30T10:45:35.671Z,59.39
2022-10-30T10:46:35.652Z,59
2022-10-30T10:47:35.640Z,59.3
2022-10-30T10:48:35.388Z,58.33
2022-10-30T10:49:40.122Z,58.52
2022-10-30T10:50:35.633Z,58.33
2022-10-30T10:51:35.375Z,57.94
2022-10-30T10:52:35.369Z,57.75
2022-10-30T10:53:35.619Z,57.17
2022-10-30T10:54:35.379Z,57.46
2022-10-30T10:55:35.618Z,57.39
2022-10-30T10:56:35.351Z,56.72
2022-10-30T10:57:35.353Z,55.85
2022-10-30T10:58:35.549Z,56.14
2022-10-30T10:59:35.622Z,56.52
2022-10-30T11:00:35.387Z,56.33
2022-10-30T11:01:36.118Z,56.04
2022-10-30T11:02:35.580Z,55.46
2022-10-30T11:03:35.600Z,55.27
2022-10-30T11:04:35.379Z,55.27
2022-10-30T11:05:35.340Z,55.08
2022-10-30T11:06:35.339Z,54.5
2022-10-30T11:07:35.341Z,53.05
2022-10-30T11:08:35.320Z,53.92
2022-10-30T11:09:35.580Z,53.44
2022-10-30T11:10:35.569Z,52.89
2022-10-30T11:11:35.571Z,52.79
2022-10-30T11:12:38.512Z,52.79
2022-10-30T11:13:35.561Z,52.01
2022-10-30T11:14:35.560Z,52.5
2022-10-30T11:15:35.553Z,51.63
2022-10-30T11:16:35.319Z,51.53
2022-10-30T11:17:35.575Z,51.25
2022-10-30T11:18:35.544Z,51.44
2022-10-30T11:19:35.547Z,50.57
2022-10-30T11:20:35.536Z,50.76
2022-10-30T11:21:35.542Z,50.47
2022-10-30T11:22:35.547Z,50.67
2022-10-30T11:23:35.279Z,49.8
2022-10-30T11:24:35.528Z,48.35
2022-10-30T11:25:35.526Z,47.87
2022-10-30T11:26:35.522Z,48.06
2022-10-30T11:27:35.529Z,47.87
2022-10-30T11:28:35.516Z,47.96
2022-10-30T11:29:35.526Z,47.19
2022-10-30T11:30:35.287Z,47.67
2022-10-30T11:31:36.328Z,48.06
2022-10-30T11:32:36.564Z,48.83
2022-10-30T11:33:36.346Z,48.44
2022-10-30T11:34:36.118Z,47.48
2022-10-30T11:35:36.325Z,46.33
2022-10-30T11:36:36.068Z,46.23
2022-10-30T11:37:36.326Z,47.19
2022-10-30T11:38:36.311Z,47.09
2022-10-30T11:39:36.310Z,47.19
2022-10-30T11:40:36.315Z,46.51
2022-10-30T11:41:36.046Z,45.65
2022-10-30T11:42:36.300Z,46.23
2022-10-30T11:43:36.297Z,46.13
2022-10-30T11:44:36.050Z,46.13
2022-10-30T11:45:36.049Z,46.23
2022-10-30T11:46:36.291Z,46.13
2022-10-30T11:47:37.045Z,46.71
2022-10-30T11:48:36.076Z,47.29
2022-10-30T11:49:37.290Z,47.38
2022-10-30T11:50:36.310Z,47.58
2022-10-30T11:51:36.380Z,46.81
2022-10-30T11:52:36.030Z,46.03
2022-10-30T11:53:36.025Z,45.36
2022-10-30T11:54:36.019Z,45.65
2022-10-30T11:55:36.267Z,45.36
2022-10-30T11:56:36.279Z,45.17
2022-10-30T11:57:36.015Z,45.36
2022-10-30T11:58:36.263Z,45.26
2022-10-30T11:59:36.265Z,45.36
2022-10-30T12:00:36.265Z,45.26
2022-10-30T12:01:36.385Z,45.65
2022-10-30T12:03:36.255Z,44.01
2022-10-30T12:04:36.280Z,45.07
2022-10-30T12:05:36.275Z,44.68
2022-10-30T12:06:35.991Z,45.84
2022-10-30T12:07:36.242Z,45.75
2022-10-30T12:08:36.247Z,45.65
2022-10-30T12:09:36.239Z,45.75
2022-10-30T12:10:36.242Z,45.84
2022-10-30T12:11:36.232Z,45.72
2022-10-30T12:12:35.981Z,45.53
2022-10-30T12:13:36.231Z,45.43
2022-10-30T12:14:35.972Z,45.72
2022-10-30T12:15:36.372Z,47.17
2022-10-30T12:16:35.971Z,47.65
2022-10-30T12:17:36.227Z,47.85
2022-10-30T12:18:36.226Z,46.78
2022-10-30T12:19:36.217Z,46.49
2022-10-30T12:20:36.244Z,46.49
2022-10-30T12:21:36.239Z,46.4
2022-10-30T12:22:36.220Z,46.2
2022-10-30T12:23:36.208Z,46.88
2022-10-30T12:24:36.210Z,47.17
2022-10-30T12:25:36.205Z,47.14
2022-10-30T12:26:36.199Z,47.17
2022-10-30T12:27:36.195Z,47.63
2022-10-30T12:28:35.939Z,47.82
2022-10-30T12:30:09.791Z,47.63
2022-10-30T12:30:36.190Z,47.44
2022-10-30T12:31:36.193Z,48.01
2022-10-30T12:32:41.811Z,48.01
2022-10-30T12:33:35.932Z,48.3
2022-10-30T12:34:35.926Z,48.97
2022-10-30T12:35:36.187Z,48.79
2022-10-30T12:36:36.208Z,48.59
2022-10-30T12:37:36.206Z,48.49
2022-10-30T12:38:36.175Z,48.69
2022-10-30T12:39:35.914Z,48.11
2022-10-30T12:40:36.164Z,48.11
2022-10-30T12:41:36.165Z,48.59
2022-10-30T12:42:35.909Z,48.49
2022-10-30T12:43:36.173Z,48.88
2022-10-30T12:44:36.194Z,48.69
2022-10-30T12:45:36.163Z,48.4
2022-10-30T12:46:35.897Z,48.4
2022-10-30T12:47:36.157Z,48.69
2022-10-30T12:48:35.894Z,48.79
2022-10-30T12:49:35.895Z,48.88
2022-10-30T12:50:36.137Z,49.07
2022-10-30T12:51:35.884Z,49.37
2022-10-30T12:52:36.172Z,49.75
2022-10-30T12:53:36.164Z,50.32
2022-10-30T12:54:36.129Z,50.04
2022-10-30T12:55:36.128Z,50.52
2022-10-30T12:56:35.870Z,51.39
2022-10-30T12:57:36.127Z,51.68
2022-10-30T12:58:35.867Z,51.48
2022-10-30T12:59:35.939Z,51.46
2022-10-30T13:00:36.110Z,51.48
2022-10-30T13:01:36.388Z,51.58
2022-10-30T13:02:36.152Z,51.48
2022-10-30T13:03:36.103Z,51.65
2022-10-30T13:04:36.136Z,51.94
2022-10-30T13:05:36.152Z,52.23
2022-10-30T13:06:35.852Z,52.33
2022-10-30T13:07:36.097Z,52.73
2022-10-30T13:08:36.134Z,52.61
2022-10-30T13:09:36.120Z,53.39
2022-10-30T13:10:35.835Z,53.19
2022-10-30T13:11:36.085Z,53.48
2022-10-30T13:12:35.824Z,54.16
2022-10-30T13:13:35.821Z,53.96
2022-10-30T13:14:36.086Z,54.64